createdAt,value
2022-10-22T00:02:24.324Z,20
2022-10-22T00:04:55.237Z,20
2022-10-22T00:07:29.503Z,20
2022-10-22T00:10:01.977Z,20
2022-10-22T00:12:33.320Z,20
2022-10-22T00:15:07.146Z,20
2022-10-22T00:17:39.139Z,17
2022-10-22T00:20:09.904Z,20
2022-10-22T00:22:43.651Z,20
2022-10-22T00:25:14.763Z,20
2022-10-22T00:27:47.432Z,23
2022-10-22T00:30:18.950Z,20
2022-10-22T00:32:52.970Z,23
2022-10-22T00:35:25.411Z,20
2022-10-22T00:37:56.584Z,20
2022-10-22T00:40:28.303Z,20
2022-10-22T00:43:00.341Z,20
2022-10-22T00:45:30.967Z,20
2022-10-22T00:48:05.130Z,20
2022-10-22T00:50:38.115Z,20
2022-10-22T00:53:11.178Z,20
2022-10-22T00:55:42.781Z,20
2022-10-22T00:58:13.487Z,20
2022-10-22T01:00:43.273Z,20
2022-10-22T01:03:16.617Z,20
2022-10-22T01:05:49.785Z,17
2022-10-22T01:08:21.023Z,20
2022-10-22T01:10:51.924Z,20
2022-10-22T01:13:24.399Z,20
2022-10-22T01:15:55.780Z,20
2022-10-22T01:18:28.853Z,20
2022-10-22T01:21:00.741Z,16
2022-10-22T01:23:32.892Z,20
2022-10-22T01:26:04.521Z,18
2022-10-22T01:28:35.340Z,20
2022-10-22T01:31:08.157Z,20
2022-10-22T01:33:40.992Z,20
2022-10-22T01:36:13.763Z,20
2022-10-22T01:38:48.726Z,20
2022-10-22T01:41:21.459Z,20
2022-10-22T01:43:54.907Z,20
2022-10-22T01:46:26.109Z,20
2022-10-22T01:48:57.055Z,20
2022-10-22T01:51:28.498Z,20
2022-10-22T01:54:01.653Z,20
2022-10-22T01:56:32.650Z,22
2022-10-22T01:59:05.050Z,20
2022-10-22T02:01:35.953Z,20
2022-10-22T02:04:06.348Z,20
2022-10-22T02:06:38.193Z,20
2022-10-22T02:09:09.726Z,20
2022-10-22T02:11:41.359Z,19
2022-10-22T02:14:12.857Z,20
2022-10-22T02:16:43.118Z,20
2022-10-22T02:19:14.658Z,20
2022-10-22T02:21:46.676Z,20
2022-10-22T02:24:17.649Z,20
2022-10-22T02:26:48.721Z,24
2022-10-22T02:29:18.303Z,21
2022-10-22T02:31:49.278Z,20
2022-10-22T02:34:21.015Z,20
2022-10-22T02:36:53.329Z,20
2022-10-22T02:39:25.480Z,20
2022-10-22T02:41:55.869Z,23
2022-10-22T02:44:26.767Z,20
2022-10-22T02:46:58.993Z,23
2022-10-22T02:49:29.449Z,20
2022-10-22T02:52:01.979Z,20
2022-10-22T02:54:32.901Z,20
2022-10-22T02:57:04.794Z,20
2022-10-22T02:59:36.623Z,22
2022-10-22T03:02:07.869Z,20
2022-10-22T03:04:39.452Z,20
2022-10-22T03:07:10.375Z,20
2022-10-22T03:09:42.668Z,21
2022-10-22T03:12:15.123Z,24
2022-10-22T03:14:46.553Z,21
2022-10-22T03:17:19.007Z,20
2022-10-22T03:19:50.415Z,23
2022-10-22T03:22:21.615Z,20
2022-10-22T03:24:52.614Z,21
2022-10-22T03:27:23.164Z,20
2022-10-22T03:29:53.900Z,20
2022-10-22T03:32:25.141Z,24
2022-10-22T03:34:57.449Z,21
2022-10-22T03:37:28.213Z,21
2022-10-22T03:40:01.671Z,24
2022-10-22T03:42:33.096Z,24
2022-10-22T03:45:02.920Z,24
2022-10-22T03:47:35.250Z,24
2022-10-22T03:50:06.222Z,20
2022-10-22T03:52:37.444Z,24
2022-10-22T03:55:10.034Z,24
2022-10-22T03:57:42.422Z,21
2022-10-22T04:00:13.494Z,20
2022-10-22T04:02:44.919Z,20
2022-10-22T04:05:15.822Z,24
2022-10-22T04:07:47.877Z,22
2022-10-22T04:10:20.710Z,24
2022-10-22T04:12:55.108Z,21
2022-10-22T04:15:28.745Z,23
2022-10-22T04:17:59.865Z,24
2022-10-22T04:20:30.925Z,24
2022-10-22T04:23:02.080Z,26
2022-10-22T04:25:33.828Z,21
2022-10-22T04:28:06.852Z,24
2022-10-22T04:30:41.650Z,21
2022-10-22T04:33:12.100Z,24
2022-10-22T04:35:44.673Z,23
2022-10-22T04:38:16.171Z,24
2022-10-22T04:40:47.981Z,28
2022-10-22T04:43:17.732Z,28
2022-10-22T04:45:50.098Z,24
2022-10-22T04:48:21.248Z,24
2022-10-22T04:50:52.230Z,25
2022-10-22T04:53:23.350Z,25
2022-10-22T04:55:55.522Z,24
2022-10-22T04:58:25.770Z,24
2022-10-22T05:00:57.107Z,27
2022-10-22T05:03:27.237Z,24
2022-10-22T05:05:59.012Z,24
2022-10-22T05:08:31.827Z,24
2022-10-22T05:11:03.371Z,24
2022-10-22T05:13:34.416Z,24
2022-10-22T05:16:03.281Z,24
2022-10-22T05:18:33.911Z,21
2022-10-22T05:21:05.956Z,24
2022-10-22T05:23:37.076Z,25
2022-10-22T05:26:08.242Z,24
2022-10-22T05:28:39.395Z,24
2022-10-22T05:31:10.329Z,24
2022-10-22T05:33:43.361Z,20
2022-10-22T05:36:16.308Z,24
2022-10-22T05:38:46.916Z,24
2022-10-22T05:41:18.523Z,24
2022-10-22T05:43:49.301Z,24
2022-10-22T05:46:22.677Z,24
2022-10-22T05:48:50.937Z,24
2022-10-22T05:51:25.695Z,20
2022-10-22T05:53:57.048Z,20
2022-10-22T05:56:30.764Z,24
2022-10-22T05:59:05.745Z,28
2022-10-22T06:01:39.443Z,24
2022-10-22T06:04:13.986Z,24
2022-10-22T06:06:44.214Z,24
2022-10-22T06:09:14.774Z,25
2022-10-22T06:11:46.031Z,28
2022-10-22T06:14:17.536Z,28
2022-10-22T06:16:48.357Z,26
2022-10-22T06:19:20.182Z,24
2022-10-22T06:21:50.501Z,24
2022-10-22T06:24:21.235Z,28
2022-10-22T06:26:52.201Z,25
2022-10-22T06:29:24.128Z,24
2022-10-22T06:31:54.828Z,28
2022-10-22T06:34:25.268Z,28
2022-10-22T06:36:55.900Z,28
2022-10-22T06:39:26.744Z,25
2022-10-22T06:41:57.566Z,27
2022-10-22T06:44:30.531Z,28
2022-10-22T06:47:02.949Z,28
2022-10-22T06:49:33.733Z,28
2022-10-22T06:52:04.344Z,24
2022-10-22T06:54:36.042Z,24
2022-10-22T06:57:09.178Z,24
2022-10-22T06:59:39.897Z,24
2022-10-22T07:02:10.664Z,24
2022-10-22T07:04:41.263Z,24
2022-10-22T07:07:12.143Z,24
2022-10-22T07:09:43.527Z,24
2022-10-22T07:12:13.493Z,24
2022-10-22T07:14:44.299Z,24
2022-10-22T07:17:15.062Z,24
2022-10-22T07:19:48.343Z,20
2022-10-22T07:22:16.731Z,22
2022-10-22T07:24:47.510Z,21
2022-10-22T07:27:18.167Z,21
2022-10-22T07:29:50.121Z,21
2022-10-22T07:32:23.955Z,24
2022-10-22T07:34:54.251Z,21
2022-10-22T07:37:28.796Z,22
2022-10-22T07:40:02.830Z,24
2022-10-22T07:42:34.650Z,20
2022-10-22T07:45:05.541Z,20
2022-10-22T07:47:37.128Z,23
2022-10-22T07:50:08.093Z,24
2022-10-22T07:52:39.441Z,21
2022-10-22T07:55:10.883Z,20
2022-10-22T07:57:42.774Z,24
2022-10-22T08:00:14.005Z,20
2022-10-22T08:02:44.800Z,24
2022-10-22T08:05:17.416Z,24
2022-10-22T08:07:48.212Z,24
2022-10-22T08:10:19.285Z,24
2022-10-22T08:12:50.628Z,28
2022-10-22T08:15:21.846Z,28
2022-10-22T08:17:53.385Z,28
2022-10-22T08:20:28.258Z,24
2022-10-22T08:22:59.153Z,23
2022-10-22T08:25:30.037Z,20
2022-10-22T08:28:02.723Z,23
2022-10-22T08:30:34.201Z,25
2022-10-22T08:33:05.479Z,20
2022-10-22T08:35:36.392Z,20
2022-10-22T08:38:07.559Z,20
2022-10-22T08:40:38.795Z,20
2022-10-22T08:43:10.156Z,24
2022-10-22T08:45:41.436Z,20
2022-10-22T08:48:13.902Z,24
2022-10-22T08:50:44.785Z,20
2022-10-22T08:53:15.808Z,20
2022-10-22T08:55:47.135Z,24
2022-10-22T08:58:22.615Z,24
2022-10-22T09:00:53.469Z,23
2022-10-22T09:03:25.925Z,24
2022-10-22T09:05:57.144Z,24
2022-10-22T09:08:29.425Z,24
2022-10-22T09:10:59.930Z,20
2022-10-22T09:13:30.994Z,24
2022-10-22T09:16:01.500Z,24
2022-10-22T09:18:32.090Z,22
2022-10-22T09:21:04.245Z,24
2022-10-22T09:23:35.852Z,20
2022-10-22T09:26:06.890Z,24
2022-10-22T09:28:36.497Z,20
2022-10-22T09:31:07.008Z,20
2022-10-22T09:33:37.600Z,20
2022-10-22T09:36:08.484Z,21
2022-10-22T09:38:38.902Z,20
2022-10-22T09:41:10.323Z,20
2022-10-22T09:43:42.046Z,20
2022-10-22T09:46:14.824Z,20
2022-10-22T09:48:48.982Z,20
2022-10-22T09:51:20.116Z,20
2022-10-22T09:53:52.930Z,21
2022-10-22T09:56:24.066Z,18
2022-10-22T09:58:56.627Z,20
2022-10-22T10:01:27.287Z,20
2022-10-22T10:03:58.030Z,18
2022-10-22T10:06:32.238Z,16
2022-10-22T10:09:02.738Z,20
2022-10-22T10:11:33.006Z,16
2022-10-22T10:14:03.560Z,20
2022-10-22T10:16:34.121Z,20
2022-10-22T10:19:06.107Z,20
2022-10-22T10:21:37.459Z,16
2022-10-22T10:24:08.363Z,19
2022-10-22T10:26:38.865Z,21
2022-10-22T10:29:09.306Z,24
2022-10-22T10:31:40.221Z,20
2022-10-22T10:34:09.475Z,20
2022-10-22T10:36:40.203Z,20
2022-10-22T10:39:10.971Z,20
2022-10-22T10:41:42.083Z,20
2022-10-22T10:44:13.093Z,24
2022-10-22T10:46:43.962Z,28
2022-10-22T10:49:14.760Z,24
2022-10-22T10:51:45.603Z,24
2022-10-22T10:54:16.449Z,24
2022-10-22T10:56:47.101Z,32
2022-10-22T10:59:17.420Z,50
2022-10-22T11:01:48.975Z,28
2022-10-22T11:04:19.678Z,24
2022-10-22T11:06:50.640Z,20
2022-10-22T11:09:21.575Z,20
2022-10-22T11:11:53.642Z,22
2022-10-22T11:14:25.341Z,20
2022-10-22T11:16:55.902Z,21
2022-10-22T11:19:46.458Z,24
2022-10-22T11:21:57.273Z,24
2022-10-22T11:24:28.342Z,24
2022-10-22T11:26:59.272Z,20
2022-10-22T11:29:32.041Z,21
2022-10-22T11:32:00.649Z,19
2022-10-22T11:34:34.242Z,16
2022-10-22T11:37:05.174Z,20
2022-10-22T11:39:35.961Z,19
2022-10-22T11:42:06.928Z,20
2022-10-22T11:44:37.435Z,16
2022-10-22T11:47:07.573Z,20
2022-10-22T11:49:38.205Z,24
2022-10-22T11:52:09.206Z,16
2022-10-22T11:54:40.195Z,20
2022-10-22T11:57:10.787Z,20
2022-10-22T11:59:41.407Z,20
2022-10-22T12:02:14.355Z,20
2022-10-22T12:04:45.052Z,18
2022-10-22T12:07:16.361Z,20
2022-10-22T12:09:47.268Z,16
2022-10-22T12:12:18.260Z,20
2022-10-22T12:14:49.534Z,20
2022-10-22T12:17:18.503Z,20
2022-10-22T12:19:48.786Z,20
2022-10-22T12:22:19.072Z,24
2022-10-22T12:24:49.905Z,20
2022-10-22T12:27:22.306Z,24
2022-10-22T12:29:51.519Z,17
2022-10-22T12:32:22.699Z,20
2022-10-22T12:34:53.654Z,32
2022-10-22T12:37:24.505Z,28
2022-10-22T12:39:55.253Z,29
2022-10-22T12:42:25.947Z,20
2022-10-22T12:44:56.924Z,21
2022-10-22T12:47:28.629Z,21
2022-10-22T12:49:59.352Z,58
2022-10-22T12:52:31.369Z,56
2022-10-22T12:55:02.793Z,20
2022-10-22T12:57:33.529Z,16
2022-10-22T13:00:04.590Z,20
2022-10-22T13:02:35.506Z,16
2022-10-22T13:05:06.229Z,16
2022-10-22T13:07:37.986Z,16
2022-10-22T13:10:08.628Z,20
2022-10-22T13:12:39.746Z,24
2022-10-22T13:15:10.593Z,19
2022-10-22T13:17:41.627Z,26
2022-10-22T13:20:12.115Z,24
2022-10-22T13:22:43.161Z,28
2022-10-22T13:25:15.113Z,20
2022-10-22T13:27:45.875Z,20
2022-10-22T13:30:16.605Z,21
2022-10-22T13:32:46.993Z,20
2022-10-22T13:35:17.841Z,28
2022-10-22T13:37:49.691Z,23
2022-10-22T13:40:24.030Z,28
2022-10-22T13:42:55.872Z,25
2022-10-22T13:45:26.624Z,24
2022-10-22T13:47:58.666Z,24
2022-10-22T13:50:29.659Z,20
2022-10-22T13:53:02.504Z,22
2022-10-22T13:55:33.952Z,24
2022-10-22T13:58:04.569Z,24
2022-10-22T14:00:35.775Z,27
2022-10-22T14:03:07.898Z,26
2022-10-22T14:05:38.793Z,24
2022-10-22T14:08:09.834Z,21
2022-10-22T14:10:41.298Z,24
2022-10-22T14:13:14.188Z,26
2022-10-22T14:15:46.088Z,24
2022-10-22T14:18:16.965Z,24
2022-10-22T14:20:47.737Z,20
2022-10-22T14:23:19.028Z,24
2022-10-22T14:25:49.306Z,24
2022-10-22T14:28:20.208Z,24
2022-10-22T14:30:52.262Z,21
2022-10-22T14:33:25.863Z,25
2022-10-22T14:35:53.631Z,27
2022-10-22T14:38:24.359Z,24
2022-10-22T14:40:54.969Z,24
2022-10-22T14:43:25.744Z,29
2022-10-22T14:45:56.593Z,28
2022-10-22T14:48:26.681Z,29
2022-10-22T14:50:58.204Z,24
2022-10-22T14:53:28.885Z,26
2022-10-22T14:55:59.920Z,24
2022-10-22T14:58:31.351Z,32
2022-10-22T15:01:02.903Z,24
2022-10-22T15:03:33.740Z,27
2022-10-22T15:06:06.064Z,28
2022-10-22T15:08:37.238Z,27
2022-10-22T15:11:06.461Z,27
2022-10-22T15:13:37.650Z,25
2022-10-22T15:16:08.757Z,24
2022-10-22T15:18:39.631Z,24
2022-10-22T15:21:10.842Z,24
2022-10-22T15:23:41.686Z,24
2022-10-22T15:26:14.583Z,24
2022-10-22T15:28:45.722Z,28
2022-10-22T15:31:17.107Z,24
2022-10-22T15:33:45.983Z,24
2022-10-22T15:36:16.890Z,28
2022-10-22T15:38:47.614Z,24
2022-10-22T15:41:19.197Z,28
2022-10-22T15:43:50.451Z,24
2022-10-22T15:46:21.272Z,24
2022-10-22T15:48:52.314Z,25
2022-10-22T15:51:23.475Z,28
2022-10-22T15:53:54.417Z,28
2022-10-22T15:56:25.874Z,28
2022-10-22T15:58:59.437Z,26
2022-10-22T16:01:30.477Z,24
2022-10-22T16:04:02.112Z,25
2022-10-22T16:06:33.155Z,25
2022-10-22T16:09:04.591Z,24
2022-10-22T16:11:36.186Z,28
2022-10-22T16:14:07.558Z,27
2022-10-22T16:16:38.713Z,28
2022-10-22T16:19:10.240Z,28
2022-10-22T16:21:41.424Z,24
2022-10-22T16:24:12.843Z,28
2022-10-22T16:26:43.109Z,28
2022-10-22T16:29:14.370Z,28
2022-10-22T16:31:45.669Z,27
2022-10-22T16:34:16.960Z,28
2022-10-22T16:36:48.269Z,29
2022-10-22T16:39:19.908Z,28
2022-10-22T16:41:50.943Z,28
2022-10-22T16:44:22.165Z,28
2022-10-22T16:46:53.850Z,32
2022-10-22T16:49:23.544Z,32
2022-10-22T16:51:54.941Z,32
2022-10-22T16:54:26.328Z,32
2022-10-22T16:56:58.090Z,32
2022-10-22T16:59:29.228Z,36
2022-10-22T17:01:58.987Z,36
2022-10-22T17:04:30.024Z,48
2022-10-22T17:07:01.263Z,48
2022-10-22T17:09:33.517Z,43
2022-10-22T17:12:04.941Z,40
2022-10-22T17:14:36.805Z,44
2022-10-22T17:17:07.984Z,44
2022-10-22T17:19:39.652Z,40
2022-10-22T17:22:13.701Z,40
2022-10-22T17:24:42.196Z,39
2022-10-22T17:27:13.446Z,40
2022-10-22T17:29:44.808Z,36
2022-10-22T17:32:15.855Z,36
2022-10-22T17:34:46.959Z,34
2022-10-22T17:37:18.634Z,40
2022-10-22T17:39:53.091Z,36
2022-10-22T17:42:30.901Z,54
2022-10-22T17:45:09.314Z,69
2022-10-22T17:47:38.946Z,73
2022-10-22T17:50:10.015Z,52
2022-10-22T17:52:41.548Z,52
2022-10-22T17:55:14.220Z,45
2022-10-22T17:57:45.165Z,43
2022-10-22T18:02:50.269Z,44
2022-10-22T18:05:22.389Z,40
2022-10-22T18:07:53.505Z,40
2022-10-22T18:10:23.240Z,36
2022-10-22T18:12:54.710Z,40
2022-10-22T18:15:25.667Z,40
2022-10-22T18:18:00.098Z,39
2022-10-22T18:20:31.267Z,37
2022-10-22T18:23:02.306Z,40
2022-10-22T18:28:04.965Z,52
2022-10-22T18:30:36.093Z,52
2022-10-22T18:33:08.132Z,49
2022-10-22T18:35:39.360Z,47
2022-10-22T18:38:10.598Z,44
2022-10-22T18:40:42.047Z,44
2022-10-22T18:43:14.249Z,48
2022-10-22T18:45:43.666Z,44
2022-10-22T18:48:16.163Z,46
2022-10-22T18:50:48.460Z,44
2022-10-22T18:53:19.639Z,48
2022-10-22T18:55:50.721Z,48
2022-10-22T18:58:22.305Z,52
2022-10-22T19:00:53.763Z,52
2022-10-22T19:03:23.527Z,52
2022-10-22T19:05:57.290Z,48
2022-10-22T19:08:26.889Z,48
2022-10-22T19:10:59.123Z,48
2022-10-22T19:13:31.398Z,48
2022-10-22T19:16:02.891Z,46
2022-10-22T19:18:34.485Z,54
2022-10-22T19:21:05.727Z,55
2022-10-22T19:23:37.421Z,56
2022-10-22T19:26:11.491Z,56
2022-10-22T19:28:44.046Z,56
2022-10-22T19:31:16.899Z,55
2022-10-22T19:33:50.153Z,53
2022-10-22T19:36:21.330Z,52
2022-10-22T19:38:53.944Z,44
2022-10-22T19:41:25.519Z,37
2022-10-22T19:43:57.116Z,32
2022-10-22T19:46:29.324Z,31
2022-10-22T19:49:00.546Z,28
2022-10-22T19:51:31.755Z,28
2022-10-22T19:54:03.323Z,28
2022-10-22T19:56:34.858Z,24
2022-10-22T19:59:06.310Z,24
2022-10-22T20:01:37.540Z,17
2022-10-22T20:04:07.494Z,20
2022-10-22T20:06:38.576Z,20
2022-10-22T20:09:08.272Z,16
2022-10-22T20:11:37.589Z,13
2022-10-22T20:14:08.869Z,12
2022-10-22T20:16:41.461Z,10
2022-10-22T20:19:13.138Z,12
2022-10-22T20:21:44.450Z,8
2022-10-22T20:24:15.704Z,8
2022-10-22T20:26:45.168Z,4
2022-10-22T20:29:16.242Z,8
2022-10-22T20:31:47.493Z,8
2022-10-22T20:34:20.287Z,8
2022-10-22T20:36:51.333Z,7
2022-10-22T20:39:22.607Z,4
2022-10-22T20:41:54.023Z,8
2022-10-22T20:44:25.819Z,4
2022-10-22T20:46:59.354Z,4
2022-10-22T20:49:30.233Z,4
2022-10-22T20:52:02.018Z,7
2022-10-22T20:54:33.684Z,7
2022-10-22T20:57:05.879Z,4
2022-10-22T20:59:38.407Z,4
2022-10-22T21:02:10.749Z,4
2022-10-22T21:04:45.644Z,8
2022-10-22T21:07:15.874Z,12
2022-10-22T21:09:47.548Z,8
2022-10-22T21:12:18.730Z,8
2022-10-22T21:14:51.760Z,5
2022-10-22T21:17:21.692Z,4
2022-10-22T21:19:52.861Z,4
2022-10-22T21:22:24.162Z,4
2022-10-22T21:24:53.711Z,4
2022-10-22T21:27:25.284Z,4
2022-10-22T21:29:54.750Z,6
2022-10-22T21:32:26.066Z,4
2022-10-22T21:34:58.486Z,4
2022-10-22T21:37:28.179Z,4
2022-10-22T21:40:03.835Z,4
2022-10-22T21:42:34.889Z,4
2022-10-22T21:45:10.411Z,3
2022-10-22T21:47:38.113Z,4
2022-10-22T21:50:09.532Z,4
2022-10-22T21:52:40.421Z,7
2022-10-22T21:55:11.682Z,4
2022-10-22T21:57:43.348Z,8
2022-10-22T22:00:14.561Z,8
2022-10-22T22:02:45.416Z,4
2022-10-22T22:05:15.716Z,4
2022-10-22T22:07:46.482Z,9
2022-10-22T22:10:17.553Z,4
2022-10-22T22:12:53.847Z,12
2022-10-22T22:15:24.693Z,12
2022-10-22T22:17:55.280Z,12
2022-10-22T22:20:26.598Z,8
2022-10-22T22:22:59.604Z,8
2022-10-22T22:25:30.719Z,8
2022-10-22T22:28:01.953Z,8
2022-10-22T22:30:31.315Z,4
2022-10-22T22:33:02.416Z,8
2022-10-22T22:35:32.738Z,7
2022-10-22T22:38:03.226Z,8
2022-10-22T22:40:34.264Z,6
2022-10-22T22:43:04.714Z,8
2022-10-22T22:45:35.670Z,4
2022-10-22T22:48:06.798Z,4
2022-10-22T22:50:37.099Z,4
2022-10-22T22:53:08.116Z,8
2022-10-22T22:55:38.723Z,4
2022-10-22T22:58:09.792Z,4
2022-10-22T23:03:11.689Z,8
2022-10-22T23:05:43.034Z,4
2022-10-22T23:08:13.935Z,4
2022-10-22T23:10:44.930Z,4
2022-10-22T23:13:15.690Z,8
2022-10-22T23:15:46.343Z,8
2022-10-22T23:18:19.858Z,4
2022-10-22T23:20:51.585Z,8
2022-10-22T23:23:22.824Z,8
2022-10-22T23:25:52.519Z,8
2022-10-22T23:28:23.060Z,8
2022-10-22T23:30:54.097Z,8
2022-10-22T23:33:26.001Z,8
2022-10-22T23:35:56.809Z,8
2022-10-22T23:38:28.021Z,8
2022-10-22T23:40:58.808Z,8
2022-10-22T23:43:29.299Z,8
2022-10-22T23:45:59.982Z,8
2022-10-22T23:48:29.370Z,8
2022-10-22T23:51:01.370Z,8
2022-10-22T23:53:32.318Z,8
2022-10-22T23:56:04.181Z,8
2022-10-22T23:58:34.860Z,8
